createdAt,value
2018-06-12T00:00:01.234Z,24.40
2018-06-12T00:00:32.941Z,24.40
2018-06-12T00:01:04.661Z,24.40
2018-06-12T00:01:36.403Z,24.30
2018-06-12T00:02:08.150Z,24.30
2018-06-12T00:02:39.850Z,24.30
2018-06-12T00:03:11.574Z,24.30
2018-06-12T00:03:43.286Z,24.30
2018-06-12T00:04:15.059Z,24.30
2018-06-12T00:04:46.742Z,24.30
2018-06-12T00:05:18.454Z,24.30
2018-06-12T00:05:50.161Z,24.30
2018-06-12T00:06:21.874Z,24.30
2018-06-12T00:06:53.598Z,24.30
2018-06-12T00:07:25.325Z,24.30
2018-06-12T00:07:57.048Z,24.30
2018-06-12T00:08:28.774Z,24.30
2018-06-12T00:09:00.463Z,24.40
2018-06-12T00:09:32.206Z,24.40
2018-06-12T00:10:03.937Z,24.40
2018-06-12T00:10:35.637Z,24.40
2018-06-12T00:11:07.350Z,24.40
2018-06-12T00:11:39.052Z,24.40
2018-06-12T00:12:10.782Z,24.40
2018-06-12T00:12:42.484Z,24.30
2018-06-12T00:13:14.199Z,24.30
2018-06-12T00:13:45.905Z,24.30
2018-06-12T00:14:17.620Z,24.30
2018-06-12T00:14:49.351Z,24.30
2018-06-12T00:15:21.094Z,24.30
2018-06-12T00:15:52.830Z,24.40
2018-06-12T00:16:24.617Z,24.30
2018-06-12T00:16:56.363Z,24.30
2018-06-12T00:17:28.038Z,24.40
2018-06-12T00:17:59.748Z,24.40
2018-06-12T00:18:31.502Z,24.40
2018-06-12T00:19:03.181Z,24.40
2018-06-12T00:19:34.893Z,24.40
2018-06-12T00:20:06.639Z,24.40
2018-06-12T00:20:38.341Z,24.40
2018-06-12T00:21:10.076Z,24.30
2018-06-12T00:21:41.799Z,24.30
2018-06-12T00:22:13.506Z,24.30
2018-06-12T00:22:45.234Z,24.30
2018-06-12T00:23:16.946Z,24.30
2018-06-12T00:23:48.646Z,24.30
2018-06-12T00:24:20.369Z,24.30
2018-06-12T00:24:52.095Z,24.20
2018-06-12T00:25:23.816Z,24.30
2018-06-12T00:25:55.517Z,24.30
2018-06-12T00:26:27.223Z,24.30
2018-06-12T00:26:58.956Z,24.30
2018-06-12T00:27:30.653Z,24.30
2018-06-12T00:28:02.390Z,24.20
2018-06-12T00:28:34.102Z,24.20
2018-06-12T00:29:05.827Z,24.20
2018-06-12T00:29:37.553Z,24.20
2018-06-12T00:30:09.291Z,24.20
2018-06-12T00:30:40.973Z,24.20
2018-06-12T00:31:12.690Z,24.20
2018-06-12T00:31:44.398Z,24.20
2018-06-12T00:32:16.134Z,24.20
2018-06-12T00:32:47.832Z,24.20
2018-06-12T00:33:19.525Z,24.20
2018-06-12T00:33:51.242Z,24.20
2018-06-12T00:34:22.956Z,24.20
2018-06-12T00:34:54.690Z,24.20
2018-06-12T00:35:26.398Z,24.20
2018-06-12T00:35:58.107Z,24.20
2018-06-12T00:36:29.815Z,24.20
2018-06-12T00:37:01.531Z,24.20
2018-06-12T00:37:33.247Z,24.20
2018-06-12T00:38:04.965Z,24.20
2018-06-12T00:38:36.685Z,24.20
2018-06-12T00:39:08.405Z,24.20
2018-06-12T00:39:40.114Z,24.30
2018-06-12T00:40:11.825Z,24.20
2018-06-12T00:40:43.542Z,24.30
2018-06-12T00:41:15.266Z,24.20
2018-06-12T00:41:47.000Z,24.20
2018-06-12T00:42:18.708Z,24.20
2018-06-12T00:42:50.420Z,24.20
2018-06-12T00:43:22.128Z,24.20
2018-06-12T00:43:53.838Z,24.20
2018-06-12T00:44:25.560Z,24.20
2018-06-12T00:44:57.293Z,24.20
2018-06-12T00:45:28.996Z,24.20
2018-06-12T00:46:00.769Z,24.20
2018-06-12T00:46:32.444Z,24.20
2018-06-12T00:47:04.155Z,24.20
2018-06-12T00:47:35.877Z,24.20
2018-06-12T00:48:07.584Z,24.20
2018-06-12T00:48:39.305Z,24.20
2018-06-12T00:49:11.029Z,24.20
2018-06-12T00:49:42.746Z,24.20
2018-06-12T00:50:14.465Z,24.20
2018-06-12T00:50:46.214Z,24.20
2018-06-12T00:51:17.926Z,24.20
2018-06-12T00:51:49.643Z,24.20
2018-06-12T00:52:21.357Z,24.20
2018-06-12T00:52:53.083Z,24.20
2018-06-12T00:53:24.792Z,24.20
2018-06-12T00:53:56.518Z,24.20
2018-06-12T00:54:28.254Z,24.20
2018-06-12T00:54:59.941Z,24.20
2018-06-12T00:55:31.671Z,24.20
2018-06-12T00:56:03.408Z,24.20
2018-06-12T00:56:35.146Z,24.20
2018-06-12T00:57:06.886Z,24.20
2018-06-12T00:57:38.601Z,24.20
2018-06-12T00:58:10.324Z,24.20
2018-06-12T00:58:42.029Z,24.20
2018-06-12T00:59:13.745Z,24.20
2018-06-12T00:59:45.477Z,24.20
2018-06-12T01:00:17.195Z,24.20
2018-06-12T01:00:48.917Z,24.20
2018-06-12T01:01:20.628Z,24.20
2018-06-12T01:01:52.353Z,24.10
2018-06-12T01:02:24.104Z,24.10
2018-06-12T01:02:55.818Z,24.10
2018-06-12T01:03:27.529Z,24.10
2018-06-12T01:03:59.252Z,24.10
2018-06-12T01:04:30.968Z,24.10
2018-06-12T01:05:02.687Z,24.10
2018-06-12T01:05:34.417Z,24.10
2018-06-12T01:06:06.124Z,24.10
2018-06-12T01:06:37.833Z,24.10
2018-06-12T01:07:09.560Z,24.10
2018-06-12T01:07:41.261Z,24.10
2018-06-12T01:08:12.992Z,24.10
2018-06-12T01:08:44.703Z,24.10
2018-06-12T01:09:16.415Z,24.10
2018-06-12T01:09:48.128Z,24.10
2018-06-12T01:10:19.834Z,24.10
2018-06-12T01:10:51.572Z,24.00
2018-06-12T01:11:23.258Z,24.00
2018-06-12T01:11:54.984Z,24.00
2018-06-12T01:12:26.704Z,24.00
2018-06-12T01:12:58.407Z,24.00
2018-06-12T01:13:30.145Z,24.00
2018-06-12T01:14:01.847Z,24.00
2018-06-12T01:14:33.563Z,24.00
2018-06-12T01:15:05.297Z,24.00
2018-06-12T01:15:37.014Z,24.00
2018-06-12T01:16:08.733Z,24.00
2018-06-12T01:16:40.448Z,24.00
2018-06-12T01:17:12.159Z,24.00
2018-06-12T01:17:43.875Z,24.00
2018-06-12T01:18:15.579Z,24.00
2018-06-12T01:18:47.299Z,24.00
2018-06-12T01:19:19.038Z,24.00
2018-06-12T01:19:50.766Z,24.00
2018-06-12T01:20:22.482Z,24.00
2018-06-12T01:20:54.216Z,24.00
2018-06-12T01:21:25.923Z,24.00
2018-06-12T01:21:57.657Z,24.00
2018-06-12T01:22:29.452Z,24.00
2018-06-12T01:23:01.155Z,23.90
2018-06-12T01:23:32.875Z,23.90
2018-06-12T01:24:04.587Z,24.00
2018-06-12T01:24:36.283Z,24.00
2018-06-12T01:25:08.021Z,24.00
2018-06-12T01:25:39.731Z,24.00
2018-06-12T01:26:11.451Z,24.00
2018-06-12T01:26:43.163Z,24.00
2018-06-12T01:27:14.873Z,24.00
2018-06-12T01:27:46.600Z,24.00
2018-06-12T01:28:18.290Z,24.00
2018-06-12T01:28:50.018Z,24.00
2018-06-12T01:29:21.746Z,24.00
2018-06-12T01:29:53.467Z,24.00
2018-06-12T01:30:25.190Z,24.00
2018-06-12T01:30:57.063Z,24.00
2018-06-12T01:31:28.767Z,24.00
2018-06-12T01:32:00.498Z,24.00
2018-06-12T01:32:32.219Z,23.90
2018-06-12T01:33:03.925Z,23.90
2018-06-12T01:33:35.635Z,23.90
2018-06-12T01:34:07.347Z,23.90
2018-06-12T01:34:39.068Z,23.90
2018-06-12T01:35:10.789Z,23.90
2018-06-12T01:35:42.491Z,23.90
2018-06-12T01:36:14.204Z,23.90
2018-06-12T01:36:45.918Z,23.90
2018-06-12T01:37:17.633Z,23.90
2018-06-12T01:37:49.380Z,23.90
2018-06-12T01:38:21.115Z,23.90
2018-06-12T01:38:52.845Z,23.90
2018-06-12T01:39:24.564Z,23.90
2018-06-12T01:39:56.283Z,23.90
2018-06-12T01:40:27.993Z,23.90
2018-06-12T01:40:59.730Z,23.90
2018-06-12T01:41:31.437Z,23.90
2018-06-12T01:42:03.169Z,23.90
2018-06-12T01:42:34.895Z,23.90
2018-06-12T01:43:06.611Z,23.90
2018-06-12T01:43:38.318Z,23.90
2018-06-12T01:44:10.039Z,23.90
2018-06-12T01:44:41.775Z,23.90
2018-06-12T01:45:13.482Z,23.90
2018-06-12T01:45:45.195Z,23.90
2018-06-12T01:46:16.916Z,23.90
2018-06-12T01:46:48.642Z,23.90
2018-06-12T01:47:20.353Z,23.90
2018-06-12T01:47:52.073Z,23.90
2018-06-12T01:48:23.779Z,23.90
2018-06-12T01:48:55.494Z,23.90
2018-06-12T01:49:27.251Z,23.80
2018-06-12T01:49:58.973Z,23.80
2018-06-12T01:50:30.690Z,23.80
2018-06-12T01:51:02.413Z,23.80
2018-06-12T01:51:34.125Z,23.80
2018-06-12T01:52:05.876Z,23.80
2018-06-12T01:52:37.623Z,23.80
2018-06-12T01:53:09.329Z,23.80
2018-06-12T01:53:41.042Z,23.80
2018-06-12T01:54:12.805Z,23.80
2018-06-12T01:54:44.522Z,23.80
2018-06-12T01:55:16.239Z,23.80
2018-06-12T01:55:47.954Z,23.80
2018-06-12T01:56:19.662Z,23.80
2018-06-12T01:56:51.395Z,23.80
2018-06-12T01:57:23.114Z,23.80
2018-06-12T01:57:54.826Z,23.80
2018-06-12T01:58:26.543Z,23.80
2018-06-12T01:58:58.254Z,23.80
2018-06-12T01:59:29.988Z,23.70
2018-06-12T02:00:01.704Z,23.70
2018-06-12T02:00:33.422Z,23.70
2018-06-12T02:01:05.209Z,23.70
2018-06-12T02:01:36.893Z,23.70
2018-06-12T02:02:08.599Z,23.70
2018-06-12T02:02:40.316Z,23.70
2018-06-12T02:03:12.035Z,23.70
2018-06-12T02:03:43.758Z,23.70
2018-06-12T02:04:15.539Z,23.70
2018-06-12T02:04:47.250Z,23.80
2018-06-12T02:05:18.963Z,23.80
2018-06-12T02:05:50.702Z,23.80
2018-06-12T02:06:22.398Z,23.80
2018-06-12T02:06:54.121Z,23.80
2018-06-12T02:07:25.835Z,23.80
2018-06-12T02:07:57.560Z,23.90
2018-06-12T02:08:29.261Z,23.90
2018-06-12T02:09:00.990Z,23.90
2018-06-12T02:09:32.707Z,23.90
2018-06-12T02:10:04.441Z,23.90
2018-06-12T02:10:36.157Z,23.80
2018-06-12T02:11:07.897Z,23.80
2018-06-12T02:11:39.630Z,23.80
2018-06-12T02:12:11.327Z,23.80
2018-06-12T02:12:43.060Z,23.80
2018-06-12T02:13:14.778Z,23.80
2018-06-12T02:13:46.487Z,23.80
2018-06-12T02:14:18.202Z,23.80
2018-06-12T02:14:49.926Z,23.80
2018-06-12T02:15:21.671Z,23.80
2018-06-12T02:15:53.401Z,23.80
2018-06-12T02:16:25.207Z,23.80
2018-06-12T02:16:56.921Z,23.80
2018-06-12T02:17:28.649Z,23.80
2018-06-12T02:18:00.371Z,23.80
2018-06-12T02:18:32.090Z,23.80
2018-06-12T02:19:03.804Z,23.80
2018-06-12T02:19:35.519Z,23.80
2018-06-12T02:20:07.255Z,23.80
2018-06-12T02:20:38.963Z,23.80
2018-06-12T02:21:10.717Z,23.80
2018-06-12T02:21:42.460Z,23.80
2018-06-12T02:22:14.170Z,23.80
2018-06-12T02:22:45.886Z,23.80
2018-06-12T02:23:17.604Z,23.80
2018-06-12T02:23:49.329Z,23.80
2018-06-12T02:24:21.042Z,23.80
2018-06-12T02:24:52.762Z,23.80
2018-06-12T02:25:24.470Z,23.90
2018-06-12T02:25:56.224Z,23.90
2018-06-12T02:26:27.921Z,23.80
2018-06-12T02:26:59.640Z,23.80
2018-06-12T02:27:31.378Z,23.80
2018-06-12T02:28:03.097Z,23.80
2018-06-12T02:28:34.815Z,23.80
2018-06-12T02:29:06.526Z,23.80
2018-06-12T02:29:38.236Z,23.80
2018-06-12T02:30:09.972Z,23.80
2018-06-12T02:30:41.695Z,23.80
2018-06-12T02:31:13.413Z,23.80
2018-06-12T02:31:45.134Z,23.90
2018-06-12T02:32:16.852Z,23.90
2018-06-12T02:32:48.575Z,23.90
2018-06-12T02:33:20.298Z,23.90
2018-06-12T02:33:52.013Z,23.90
2018-06-12T02:34:23.753Z,23.90
2018-06-12T02:34:55.458Z,23.90
2018-06-12T02:35:27.177Z,23.90
2018-06-12T02:35:58.918Z,23.90
2018-06-12T02:36:30.628Z,23.90
2018-06-12T02:37:02.348Z,23.90
2018-06-12T02:37:34.066Z,23.90
2018-06-12T02:38:05.785Z,23.90
2018-06-12T02:38:37.531Z,23.90
2018-06-12T02:39:09.248Z,23.80
2018-06-12T02:39:40.970Z,23.80
2018-06-12T02:40:12.694Z,23.80
2018-06-12T02:40:44.418Z,23.80
2018-06-12T02:41:16.148Z,23.80
2018-06-12T02:41:47.861Z,23.80
2018-06-12T02:42:19.571Z,23.80
2018-06-12T02:42:51.325Z,23.80
2018-06-12T02:43:23.035Z,23.80
2018-06-12T02:43:54.744Z,23.80
2018-06-12T02:44:26.494Z,23.80
2018-06-12T02:44:58.167Z,23.80
2018-06-12T02:45:29.897Z,23.70
2018-06-12T02:46:01.644Z,23.70
2018-06-12T02:46:33.356Z,23.70
2018-06-12T02:47:05.066Z,23.70
2018-06-12T02:47:36.775Z,23.70
2018-06-12T02:48:08.485Z,23.70
2018-06-12T02:48:40.244Z,23.70
2018-06-12T02:49:11.931Z,23.70
2018-06-12T02:49:43.663Z,23.70
2018-06-12T02:50:15.382Z,23.70
2018-06-12T02:50:47.085Z,23.70
2018-06-12T02:51:18.912Z,23.70
2018-06-12T02:51:50.651Z,23.60
2018-06-12T02:52:22.363Z,23.60
2018-06-12T02:52:54.066Z,23.60
2018-06-12T02:53:25.783Z,23.60
2018-06-12T02:53:57.508Z,23.60
2018-06-12T02:54:29.210Z,23.60
2018-06-12T02:55:00.929Z,23.60
2018-06-12T02:55:32.658Z,23.50
2018-06-12T02:56:04.390Z,23.50
2018-06-12T02:56:36.097Z,23.50
2018-06-12T02:57:07.799Z,23.50
2018-06-12T02:57:39.543Z,23.40
2018-06-12T02:58:11.275Z,23.40
2018-06-12T02:58:42.998Z,23.40
2018-06-12T02:59:14.715Z,23.40
2018-06-12T02:59:46.439Z,23.40
2018-06-12T03:00:18.162Z,23.40
2018-06-12T03:00:49.979Z,23.30
2018-06-12T03:01:21.683Z,23.30
2018-06-12T03:01:53.407Z,23.30
2018-06-12T03:02:25.151Z,23.30
2018-06-12T03:02:56.884Z,23.30
2018-06-12T03:03:28.623Z,23.30
2018-06-12T03:04:00.355Z,23.30
2018-06-12T03:04:32.082Z,23.40
2018-06-12T03:05:03.797Z,23.40
2018-06-12T03:05:35.519Z,23.40
2018-06-12T03:06:07.235Z,23.40
2018-06-12T03:06:38.971Z,23.40
2018-06-12T03:07:10.704Z,23.40
2018-06-12T03:07:42.410Z,23.40
2018-06-12T03:08:14.165Z,23.40
2018-06-12T03:08:45.898Z,23.50
2018-06-12T03:09:17.615Z,23.50
2018-06-12T03:09:49.321Z,23.50
2018-06-12T03:10:21.054Z,23.50
2018-06-12T03:10:52.751Z,23.50
2018-06-12T03:11:24.461Z,23.50
2018-06-12T03:11:56.188Z,23.50
2018-06-12T03:12:27.937Z,23.50
2018-06-12T03:12:59.651Z,23.50
2018-06-12T03:13:31.359Z,23.50
2018-06-12T03:14:03.088Z,23.50
2018-06-12T03:14:34.806Z,23.50
2018-06-12T03:15:06.521Z,23.50
2018-06-12T03:15:38.229Z,23.50
2018-06-12T03:16:09.932Z,23.60
2018-06-12T03:16:41.671Z,23.50
2018-06-12T03:17:13.390Z,23.50
2018-06-12T03:17:45.095Z,23.50
2018-06-12T03:18:16.813Z,23.60
2018-06-12T03:18:48.522Z,23.50
2018-06-12T03:19:20.268Z,23.50
2018-06-12T03:19:51.966Z,23.60
2018-06-12T03:20:23.680Z,23.60
2018-06-12T03:20:55.445Z,23.50
2018-06-12T03:21:27.144Z,23.50
2018-06-12T03:21:58.872Z,23.50
2018-06-12T03:22:30.601Z,23.50
2018-06-12T03:23:02.318Z,23.50
2018-06-12T03:23:34.032Z,23.40
2018-06-12T03:24:05.793Z,23.40
2018-06-12T03:24:37.515Z,23.40
2018-06-12T03:25:09.250Z,23.40
2018-06-12T03:25:40.943Z,23.40
2018-06-12T03:26:12.648Z,23.40
2018-06-12T03:26:44.368Z,23.40
2018-06-12T03:27:16.093Z,23.40
2018-06-12T03:27:47.819Z,23.40
2018-06-12T03:28:19.521Z,23.40
2018-06-12T03:28:51.233Z,23.40
2018-06-12T03:29:22.949Z,23.40
2018-06-12T03:29:54.673Z,23.40
2018-06-12T03:30:26.406Z,23.40
2018-06-12T03:30:58.117Z,23.40
2018-06-12T03:31:29.842Z,23.40
2018-06-12T03:32:01.558Z,23.40
2018-06-12T03:32:33.277Z,23.40
2018-06-12T03:33:04.972Z,23.40
2018-06-12T03:33:36.717Z,23.30
2018-06-12T03:34:08.421Z,23.30
2018-06-12T03:34:40.138Z,23.30
2018-06-12T03:35:11.833Z,23.30
2018-06-12T03:35:43.546Z,23.30
2018-06-12T03:36:15.294Z,23.30
2018-06-12T03:36:47.009Z,23.30
2018-06-12T03:37:18.720Z,23.30
2018-06-12T03:37:50.465Z,23.40
2018-06-12T03:38:22.171Z,23.40
2018-06-12T03:38:53.895Z,23.40
2018-06-12T03:39:25.595Z,23.40
2018-06-12T03:39:57.313Z,23.40
2018-06-12T03:40:29.058Z,23.40
2018-06-12T03:41:00.792Z,23.50
2018-06-12T03:41:32.494Z,23.50
2018-06-12T03:42:04.247Z,23.50
2018-06-12T03:42:35.954Z,23.50
2018-06-12T03:43:07.668Z,23.40
2018-06-12T03:43:39.373Z,23.50
2018-06-12T03:44:11.114Z,23.40
2018-06-12T03:44:42.837Z,23.40
2018-06-12T03:45:14.543Z,23.40
2018-06-12T03:45:46.276Z,23.40
2018-06-12T03:46:18.011Z,23.40
2018-06-12T03:46:49.702Z,23.40
2018-06-12T03:47:21.442Z,23.40
2018-06-12T03:47:53.219Z,23.40
2018-06-12T03:48:24.912Z,23.40
2018-06-12T03:48:56.638Z,23.40
2018-06-12T03:49:28.361Z,23.40
2018-06-12T03:50:00.075Z,23.40
2018-06-12T03:50:31.790Z,23.40
2018-06-12T03:51:03.515Z,23.40
2018-06-12T03:51:35.262Z,23.30
2018-06-12T03:52:07.005Z,23.30
2018-06-12T03:52:38.713Z,23.30
2018-06-12T03:53:10.437Z,23.30
2018-06-12T03:53:42.133Z,23.20
2018-06-12T03:54:13.831Z,23.30
2018-06-12T03:54:45.540Z,23.30
2018-06-12T03:55:17.249Z,23.30
2018-06-12T03:55:48.976Z,23.20
2018-06-12T03:56:20.733Z,23.30
2018-06-12T03:56:52.417Z,23.20
2018-06-12T03:57:24.165Z,23.20
2018-06-12T03:57:55.958Z,23.20
2018-06-12T03:58:27.682Z,23.30
2018-06-12T03:58:59.437Z,23.30
2018-06-12T03:59:31.141Z,23.30
2018-06-12T04:00:02.853Z,23.30
2018-06-12T04:00:34.592Z,23.30
2018-06-12T04:01:06.305Z,23.30
2018-06-12T04:01:38.019Z,23.30
2018-06-12T04:02:09.745Z,23.30
2018-06-12T04:02:41.516Z,23.20
2018-06-12T04:03:13.226Z,23.20
2018-06-12T04:03:44.953Z,23.20
2018-06-12T04:04:16.698Z,23.20
2018-06-12T04:04:48.417Z,23.10
2018-06-12T04:05:20.141Z,23.10
2018-06-12T04:05:51.866Z,23.10
2018-06-12T04:06:23.590Z,23.10
2018-06-12T04:06:55.344Z,23.00
2018-06-12T04:07:27.066Z,23.00
2018-06-12T04:07:58.781Z,23.00
2018-06-12T04:08:30.506Z,23.00
2018-06-12T04:09:02.235Z,23.00
2018-06-12T04:09:33.952Z,23.00
2018-06-12T04:10:05.663Z,22.90
2018-06-12T04:10:37.369Z,22.90
2018-06-12T04:11:09.089Z,22.90
2018-06-12T04:11:40.808Z,22.90
2018-06-12T04:12:12.527Z,22.90
2018-06-12T04:12:44.276Z,22.90
2018-06-12T04:13:15.976Z,22.90
2018-06-12T04:14:19.716Z,23.00
2018-06-12T04:14:51.524Z,23.00
2018-06-12T04:15:23.177Z,23.00
2018-06-12T04:15:54.880Z,23.00
2018-06-12T04:16:26.601Z,23.10
2018-06-12T04:16:58.349Z,23.10
2018-06-12T04:17:30.067Z,23.10
2018-06-12T04:18:01.781Z,23.10
2018-06-12T04:18:33.484Z,23.10
2018-06-12T04:19:05.202Z,23.10
2018-06-12T04:19:36.946Z,23.00
2018-06-12T04:20:08.658Z,23.00
2018-06-12T04:20:40.373Z,23.00
2018-06-12T04:21:12.124Z,23.00
2018-06-12T04:21:43.856Z,22.90
2018-06-12T04:22:15.605Z,22.90
2018-06-12T04:22:47.319Z,22.90
2018-06-12T04:23:19.046Z,23.00
2018-06-12T04:23:50.760Z,23.00
2018-06-12T04:24:22.468Z,23.00
2018-06-12T04:24:54.193Z,22.90
2018-06-12T04:25:25.897Z,23.00
2018-06-12T04:26:29.606Z,23.00
2018-06-12T04:27:01.356Z,23.00
2018-06-12T04:27:33.077Z,22.90
2018-06-12T04:28:04.829Z,22.90
2018-06-12T04:28:36.507Z,22.90
2018-06-12T04:29:08.230Z,22.90
2018-06-12T04:29:39.976Z,22.90
2018-06-12T04:30:11.681Z,22.90
2018-06-12T04:30:43.395Z,22.90
2018-06-12T04:31:15.113Z,23.00
2018-06-12T04:31:46.832Z,23.00
2018-06-12T04:32:18.577Z,23.00
2018-06-12T04:32:50.298Z,23.00
2018-06-12T04:33:22.033Z,23.00
2018-06-12T04:33:53.752Z,23.00
2018-06-12T04:34:25.462Z,23.00
2018-06-12T04:34:57.177Z,23.00
2018-06-12T04:35:28.918Z,23.00
2018-06-12T04:36:00.630Z,23.00
2018-06-12T04:36:32.345Z,23.00
2018-06-12T04:37:04.061Z,23.00
2018-06-12T04:37:35.802Z,23.00
2018-06-12T04:38:07.542Z,23.10
2018-06-12T04:38:39.242Z,23.10
2018-06-12T04:39:10.959Z,23.10
2018-06-12T04:39:42.683Z,23.20
2018-06-12T04:40:46.404Z,23.20
2018-06-12T04:41:18.114Z,23.20
2018-06-12T04:41:49.854Z,23.20
2018-06-12T04:42:21.574Z,23.20
2018-06-12T04:42:53.286Z,23.20
2018-06-12T04:43:25.071Z,23.30
2018-06-12T04:43:56.724Z,23.30
2018-06-12T04:44:28.449Z,23.30
2018-06-12T04:45:00.186Z,23.30
2018-06-12T04:45:31.906Z,23.30
2018-06-12T04:46:03.632Z,23.30
2018-06-12T04:46:35.340Z,23.30
2018-06-12T04:47:07.634Z,23.20
2018-06-12T04:47:39.416Z,23.30
2018-06-12T04:48:11.130Z,23.20
2018-06-12T04:48:42.842Z,23.30
2018-06-12T04:49:14.567Z,23.20
2018-06-12T04:49:46.299Z,23.20
2018-06-12T04:50:18.027Z,23.20
2018-06-12T04:50:49.763Z,23.30
2018-06-12T04:51:21.482Z,23.30
2018-06-12T04:51:53.215Z,23.30
2018-06-12T04:52:24.942Z,23.30
2018-06-12T04:52:56.680Z,23.30
2018-06-12T04:53:28.413Z,23.30
2018-06-12T04:54:00.131Z,23.30
2018-06-12T04:54:31.874Z,23.30
2018-06-12T04:55:03.562Z,23.30
2018-06-12T04:55:35.275Z,23.30
2018-06-12T04:56:06.999Z,23.30
2018-06-12T04:56:38.716Z,23.30
2018-06-12T04:57:10.427Z,23.30
2018-06-12T04:57:42.175Z,23.30
2018-06-12T04:58:13.880Z,23.30
2018-06-12T04:58:45.599Z,23.30
2018-06-12T04:59:17.329Z,23.30
2018-06-12T04:59:49.038Z,23.30
2018-06-12T05:00:20.752Z,23.30
2018-06-12T05:00:52.502Z,23.30
2018-06-12T05:01:24.225Z,23.30
2018-06-12T05:01:55.960Z,23.20
2018-06-12T05:02:27.687Z,23.30
2018-06-12T05:02:59.411Z,23.20
2018-06-12T05:03:31.218Z,23.30
2018-06-12T05:04:02.935Z,23.30
2018-06-12T05:04:34.653Z,23.30
2018-06-12T05:05:06.365Z,23.30
2018-06-12T05:05:38.083Z,23.20
2018-06-12T05:06:09.797Z,23.20
2018-06-12T05:06:41.530Z,23.30
2018-06-12T05:07:13.259Z,23.30
2018-06-12T05:07:44.977Z,23.30
2018-06-12T05:08:16.763Z,23.30
2018-06-12T05:08:48.469Z,23.30
2018-06-12T05:09:20.176Z,23.30
2018-06-12T05:09:51.910Z,23.30
2018-06-12T05:10:23.621Z,23.30
2018-06-12T05:10:55.338Z,23.30
2018-06-12T05:11:27.083Z,23.30
2018-06-12T05:11:58.797Z,23.30
2018-06-12T05:12:30.542Z,23.30
2018-06-12T05:13:02.263Z,23.30
2018-06-12T05:13:33.980Z,23.30
2018-06-12T05:14:05.692Z,23.30
2018-06-12T05:14:37.409Z,23.20
2018-06-12T05:15:09.148Z,23.30
2018-06-12T05:15:40.877Z,23.30
2018-06-12T05:16:12.576Z,23.30
2018-06-12T05:16:44.320Z,23.30
2018-06-12T05:17:16.035Z,23.30
2018-06-12T05:17:47.762Z,23.30
2018-06-12T05:18:19.557Z,23.30
2018-06-12T05:18:51.337Z,23.30
2018-06-12T05:19:23.084Z,23.30
2018-06-12T05:19:54.933Z,23.30
2018-06-12T05:20:26.708Z,23.30
2018-06-12T05:20:58.431Z,23.30
2018-06-12T05:21:30.146Z,23.30
2018-06-12T05:22:01.864Z,23.30
2018-06-12T05:22:33.594Z,23.30
2018-06-12T05:23:05.374Z,23.30
2018-06-12T05:23:37.098Z,23.30
2018-06-12T05:24:08.822Z,23.20
2018-06-12T05:24:40.547Z,23.20
2018-06-12T05:25:12.266Z,23.30
2018-06-12T05:25:44.027Z,23.20
2018-06-12T05:26:15.845Z,23.30
2018-06-12T05:26:47.530Z,23.30
2018-06-12T05:27:19.287Z,23.20
2018-06-12T05:27:51.065Z,23.20
2018-06-12T05:28:22.792Z,23.20
2018-06-12T05:28:54.509Z,23.20
2018-06-12T05:29:26.256Z,23.20
2018-06-12T05:29:57.974Z,23.20
2018-06-12T05:30:29.670Z,23.20
2018-06-12T05:31:01.447Z,23.10
2018-06-12T05:31:33.119Z,23.10
2018-06-12T05:32:04.836Z,23.10
2018-06-12T05:32:36.558Z,23.10
2018-06-12T05:33:08.271Z,23.10
2018-06-12T05:33:40.014Z,23.20
2018-06-12T05:34:11.747Z,23.10
2018-06-12T05:34:43.467Z,23.10
2018-06-12T05:35:15.198Z,23.10
2018-06-12T05:35:46.975Z,23.20
2018-06-12T05:36:18.700Z,23.20
2018-06-12T05:36:50.437Z,23.20
2018-06-12T05:37:22.147Z,23.20
2018-06-12T05:37:53.853Z,23.20
2018-06-12T05:38:25.607Z,23.20
2018-06-12T05:38:57.317Z,23.20
2018-06-12T05:39:29.060Z,23.20
2018-06-12T05:40:00.815Z,23.20
2018-06-12T05:40:32.528Z,23.20
2018-06-12T05:41:04.244Z,23.20
2018-06-12T05:41:36.071Z,23.20
2018-06-12T05:42:41.379Z,23.20
2018-06-12T05:43:13.106Z,23.20
2018-06-12T05:43:44.836Z,23.20
2018-06-12T05:44:16.559Z,23.20
2018-06-12T05:44:48.279Z,23.10
2018-06-12T05:45:20.051Z,23.20
2018-06-12T05:45:51.833Z,23.10
2018-06-12T05:46:23.564Z,23.20
2018-06-12T05:46:55.284Z,23.10
2018-06-12T05:47:26.999Z,23.10
2018-06-12T05:47:58.723Z,23.10
2018-06-12T05:48:30.443Z,23.10
2018-06-12T05:49:02.160Z,23.10
2018-06-12T05:49:33.883Z,23.20
2018-06-12T05:50:05.633Z,23.20
2018-06-12T05:50:37.368Z,23.20
2018-06-12T05:51:09.097Z,23.20
2018-06-12T05:51:40.858Z,23.20
2018-06-12T05:52:12.595Z,23.20
2018-06-12T05:52:44.311Z,23.20
2018-06-12T05:53:16.067Z,23.30
2018-06-12T05:53:47.787Z,23.30
2018-06-12T05:54:19.499Z,23.30
2018-06-12T05:54:51.217Z,23.30
2018-06-12T05:55:22.943Z,23.20
2018-06-12T05:55:54.654Z,23.30
2018-06-12T05:56:26.356Z,23.20
2018-06-12T05:56:58.081Z,23.30
2018-06-12T05:57:29.864Z,23.20
2018-06-12T05:58:01.547Z,23.20
2018-06-12T05:58:33.281Z,23.30
2018-06-12T05:59:05.025Z,23.30
2018-06-12T05:59:36.717Z,23.20
2018-06-12T06:00:08.453Z,23.20
2018-06-12T06:00:40.191Z,23.20
2018-06-12T06:01:11.909Z,23.20
2018-06-12T06:01:43.617Z,23.20
2018-06-12T06:02:15.331Z,23.20
2018-06-12T06:02:47.072Z,23.20
2018-06-12T06:03:18.806Z,23.10
2018-06-12T06:03:50.537Z,23.10
2018-06-12T06:04:22.258Z,23.10
2018-06-12T06:04:53.978Z,23.10
2018-06-12T06:05:25.689Z,23.20
2018-06-12T06:05:57.418Z,23.20
2018-06-12T06:06:29.137Z,23.20
2018-06-12T06:07:00.859Z,23.20
2018-06-12T06:07:32.598Z,23.20
2018-06-12T06:08:04.316Z,23.20
2018-06-12T06:08:36.040Z,23.30
2018-06-12T06:09:07.779Z,23.30
2018-06-12T06:09:39.495Z,23.30
2018-06-12T06:10:11.201Z,23.40
2018-06-12T06:10:42.994Z,23.40
2018-06-12T06:11:14.656Z,23.40
2018-06-12T06:11:46.399Z,23.40
2018-06-12T06:12:18.160Z,23.30
2018-06-12T06:12:49.854Z,23.30
2018-06-12T06:13:21.605Z,23.30
2018-06-12T06:13:53.363Z,23.30
2018-06-12T06:14:25.071Z,23.30
2018-06-12T06:14:56.797Z,23.40
2018-06-12T06:15:28.510Z,23.30
2018-06-12T06:16:00.242Z,23.30
2018-06-12T06:16:31.973Z,23.30
2018-06-12T06:17:03.752Z,23.30
2018-06-12T06:17:35.421Z,23.30
2018-06-12T06:18:07.141Z,23.30
2018-06-12T06:18:38.870Z,23.30
2018-06-12T06:19:10.662Z,23.30
2018-06-12T06:19:42.373Z,23.30
2018-06-12T06:20:14.091Z,23.30
2018-06-12T06:20:45.819Z,23.40
2018-06-12T06:21:17.545Z,23.40
2018-06-12T06:21:49.238Z,23.30
2018-06-12T06:22:21.012Z,23.30
2018-06-12T06:22:52.714Z,23.30
2018-06-12T06:23:24.443Z,23.30
2018-06-12T06:23:56.151Z,23.30
2018-06-12T06:24:27.971Z,23.30
2018-06-12T06:24:59.745Z,23.30
2018-06-12T06:25:31.454Z,23.30
2018-06-12T06:26:03.163Z,23.40
2018-06-12T06:26:34.881Z,23.40
2018-06-12T06:27:06.601Z,23.40
2018-06-12T06:27:38.349Z,23.40
2018-06-12T06:28:10.062Z,23.40
2018-06-12T06:28:41.784Z,23.40
2018-06-12T06:29:13.539Z,23.50
2018-06-12T06:29:45.263Z,23.40
2018-06-12T06:30:16.999Z,23.50
2018-06-12T06:30:48.691Z,23.40
2018-06-12T06:31:20.439Z,23.50
2018-06-12T06:32:24.139Z,23.40
2018-06-12T06:32:55.861Z,23.30
2018-06-12T06:33:27.574Z,23.30
2018-06-12T06:33:59.314Z,23.30
2018-06-12T06:34:31.075Z,23.30
2018-06-12T06:35:02.795Z,23.30
2018-06-12T06:35:34.553Z,23.30
2018-06-12T06:36:06.285Z,23.20
2018-06-12T06:36:38.007Z,23.20
2018-06-12T06:37:09.704Z,23.20
2018-06-12T06:37:41.434Z,23.20
2018-06-12T06:38:13.153Z,23.30
2018-06-12T06:38:44.866Z,23.30
2018-06-12T06:39:16.621Z,23.30
2018-06-12T06:39:48.332Z,23.30
2018-06-12T06:40:20.047Z,23.30
2018-06-12T06:40:51.777Z,23.30
2018-06-12T06:41:23.501Z,23.40
2018-06-12T06:41:55.215Z,23.40
2018-06-12T06:42:26.971Z,23.30
2018-06-12T06:42:58.708Z,23.30
2018-06-12T06:43:30.447Z,23.30
2018-06-12T06:44:02.185Z,23.40
2018-06-12T06:44:33.902Z,23.40
2018-06-12T06:45:05.636Z,23.40
2018-06-12T06:45:37.338Z,23.40
2018-06-12T06:46:09.075Z,23.40
2018-06-12T06:46:40.809Z,23.40
2018-06-12T06:47:12.530Z,23.40
2018-06-12T06:47:44.260Z,23.40
2018-06-12T06:48:15.995Z,23.40
2018-06-12T06:48:47.785Z,23.40
2018-06-12T06:49:19.525Z,23.40
2018-06-12T06:49:51.237Z,23.40
2018-06-12T06:50:22.949Z,23.20
2018-06-12T06:50:54.721Z,23.40